createdAt,value
2023-03-26T00:01:15.751Z,98.56
2023-03-26T00:03:47.338Z,98.89
2023-03-26T00:06:17.129Z,98.51
2023-03-26T00:08:45.864Z,98.23
2023-03-26T00:11:16.138Z,99.39
2023-03-26T00:13:44.453Z,100.00
2023-03-26T00:16:14.142Z,99.85
2023-03-26T00:18:42.694Z,99.67
2023-03-26T00:21:13.474Z,99.61
2023-03-26T00:23:41.638Z,99.42
2023-03-26T00:26:12.103Z,99.72
2023-03-26T00:28:41.561Z,99.72
2023-03-26T00:31:12.455Z,100.00
2023-03-26T00:33:41.529Z,99.25
2023-03-26T00:36:17.757Z,99.48
2023-03-26T00:38:45.233Z,99.62
2023-03-26T00:41:23.046Z,100.00
2023-03-26T00:43:53.549Z,99.62
2023-03-26T00:46:20.575Z,99.56
2023-03-26T00:48:47.686Z,98.82
2023-03-26T00:51:19.329Z,98.81
2023-03-26T00:53:48.312Z,98.95
2023-03-26T00:56:15.323Z,99.05
2023-03-26T00:58:43.051Z,98.67
2023-03-26T01:01:14.419Z,98.37
2023-03-26T01:03:53.161Z,98.31
2023-03-26T01:06:35.601Z,98.67
2023-03-26T01:09:12.990Z,98.13
2023-03-26T01:11:45.610Z,97.83
2023-03-26T01:14:16.884Z,97.92
2023-03-26T01:16:50.182Z,97.67
2023-03-26T01:19:26.172Z,98.30
2023-03-26T01:21:54.005Z,97.94
2023-03-26T01:24:22.417Z,98.26
2023-03-26T01:27:09.695Z,98.41
2023-03-26T01:29:39.624Z,98.40
2023-03-26T01:32:18.571Z,98.25
2023-03-26T01:35:06.406Z,98.29
2023-03-26T01:38:10.894Z,97.27
2023-03-26T01:40:56.245Z,97.30
2023-03-26T01:43:26.329Z,97.76
2023-03-26T01:45:54.536Z,97.61
2023-03-26T01:48:28.215Z,97.33
2023-03-26T01:50:56.499Z,97.78
2023-03-26T01:53:23.733Z,97.50
2023-03-26T01:56:19.628Z,97.72
2023-03-26T01:58:46.806Z,97.79
2023-03-26T02:01:27.958Z,97.63
2023-03-26T02:04:06.970Z,97.87
2023-03-26T02:07:02.145Z,97.83
2023-03-26T02:09:32.756Z,97.35
2023-03-26T02:12:03.821Z,97.17
2023-03-26T02:14:31.417Z,97.69
2023-03-26T02:17:19.378Z,97.95
2023-03-26T02:19:48.125Z,97.36
2023-03-26T02:22:15.914Z,97.70
2023-03-26T02:24:45.162Z,97.92
2023-03-26T02:27:13.687Z,97.26
2023-03-26T02:29:41.236Z,97.17
2023-03-26T02:32:14.123Z,97.03
2023-03-26T02:34:42.151Z,97.25
2023-03-26T02:37:10.343Z,98.03
2023-03-26T02:39:40.812Z,97.77
2023-03-26T02:42:16.276Z,98.21
2023-03-26T02:44:47.912Z,98.30
2023-03-26T02:47:20.925Z,98.32
2023-03-26T02:49:54.154Z,98.87
2023-03-26T02:52:50.155Z,98.62
2023-03-26T02:55:18.013Z,98.76
2023-03-26T02:57:50.875Z,98.96
2023-03-26T03:00:22.823Z,98.82
2023-03-26T03:02:50.698Z,98.89
2023-03-26T03:05:29.025Z,98.19
2023-03-26T03:08:18.552Z,98.17
2023-03-26T03:11:11.605Z,98.39
2023-03-26T03:13:48.654Z,97.29
2023-03-26T03:16:20.184Z,97.34
2023-03-26T03:18:54.360Z,97.07
2023-03-26T03:21:24.343Z,96.71
2023-03-26T03:23:51.388Z,96.48
2023-03-26T03:26:27.918Z,97.43
2023-03-26T03:28:56.784Z,97.26
2023-03-26T03:31:26.025Z,97.09
2023-03-26T03:33:56.291Z,97.70
2023-03-26T03:36:24.319Z,97.71
2023-03-26T03:39:03.013Z,97.62
2023-03-26T03:41:31.950Z,97.64
2023-03-26T03:44:01.801Z,97.79
2023-03-26T03:46:31.939Z,97.29
2023-03-26T03:49:02.253Z,97.62
2023-03-26T03:51:33.661Z,97.68
2023-03-26T03:54:03.823Z,97.50
2023-03-26T03:56:57.646Z,96.97
2023-03-26T04:00:00.324Z,97.46
2023-03-26T04:02:34.801Z,97.61
2023-03-26T04:05:06.151Z,97.67
2023-03-26T04:07:33.446Z,98.09
2023-03-26T04:10:09.099Z,97.96
2023-03-26T04:12:54.973Z,97.63
2023-03-26T04:15:37.920Z,97.50
2023-03-26T04:18:10.430Z,98.05
2023-03-26T04:20:46.821Z,97.96
2023-03-26T04:23:22.567Z,97.61
2023-03-26T04:25:58.113Z,97.75
2023-03-26T04:28:49.301Z,96.96
2023-03-26T04:31:29.457Z,97.52
2023-03-26T04:34:06.510Z,96.64
2023-03-26T04:36:40.814Z,96.30
2023-03-26T04:39:11.900Z,96.60
2023-03-26T04:41:58.027Z,96.10
2023-03-26T04:44:30.428Z,96.69
2023-03-26T04:47:04.207Z,96.46
2023-03-26T04:49:42.749Z,96.90
2023-03-26T04:52:14.918Z,96.69
2023-03-26T04:54:48.100Z,96.79
2023-03-26T04:57:29.791Z,95.66
2023-03-26T05:00:15.144Z,95.81
2023-03-26T05:03:01.142Z,94.74
2023-03-26T05:09:46.471Z,94.40
2023-03-26T05:12:22.476Z,93.90
2023-03-26T05:15:06.297Z,94.04
2023-03-26T05:17:49.752Z,93.66
2023-03-26T05:20:27.816Z,93.15
2023-03-26T05:22:58.647Z,93.22
2023-03-26T05:25:29.037Z,93.75
2023-03-26T05:27:57.005Z,94.33
2023-03-26T05:30:28.212Z,93.88
2023-03-26T05:32:59.265Z,94.17
2023-03-26T05:35:31.447Z,94.57
2023-03-26T05:37:58.619Z,94.46
2023-03-26T05:40:26.494Z,93.88
2023-03-26T05:42:59.499Z,94.14
2023-03-26T05:45:47.913Z,93.77
2023-03-26T05:48:35.632Z,93.64
2023-03-26T05:51:02.655Z,93.74
2023-03-26T05:53:32.375Z,93.12
2023-03-26T05:56:18.146Z,93.33
2023-03-26T05:59:03.772Z,93.31
2023-03-26T06:01:51.007Z,93.11
2023-03-26T06:04:56.980Z,93.00
2023-03-26T06:07:52.228Z,93.28
2023-03-26T06:10:20.403Z,92.83
2023-03-26T06:12:47.890Z,93.31
2023-03-26T06:15:15.063Z,92.72
2023-03-26T06:18:02.771Z,93.17
2023-03-26T06:21:09.498Z,93.00
2023-03-26T06:24:01.654Z,93.07
2023-03-26T06:26:47.767Z,93.21
2023-03-26T06:29:41.858Z,93.31
2023-03-26T06:32:20.349Z,93.71
2023-03-26T06:35:14.406Z,93.32
2023-03-26T06:37:42.569Z,94.59
2023-03-26T06:40:10.213Z,94.97
2023-03-26T06:43:08.342Z,94.46
2023-03-26T06:45:52.549Z,95.00
2023-03-26T06:48:43.322Z,95.21
2023-03-26T06:51:30.802Z,95.75
2023-03-26T06:54:03.548Z,96.09
2023-03-26T06:57:03.453Z,96.31
2023-03-26T06:59:49.234Z,96.12
2023-03-26T07:02:36.146Z,96.17
2023-03-26T07:05:22.688Z,96.26
2023-03-26T07:08:08.581Z,96.27
2023-03-26T07:10:54.266Z,96.54
2023-03-26T07:13:40.295Z,96.54
2023-03-26T07:16:26.130Z,96.63
2023-03-26T07:18:56.547Z,97.23
2023-03-26T07:21:29.351Z,96.67
2023-03-26T07:23:57.085Z,97.19
2023-03-26T07:27:17.843Z,96.88
2023-03-26T07:30:04.718Z,97.24
2023-03-26T07:33:06.117Z,97.81
2023-03-26T07:36:21.450Z,98.18
2023-03-26T07:39:35.451Z,97.16
2023-03-26T07:42:27.963Z,97.90
2023-03-26T07:45:30.060Z,98.04
2023-03-26T07:48:22.069Z,98.62
2023-03-26T07:51:12.586Z,98.43
2023-03-26T07:54:10.590Z,98.23
2023-03-26T07:57:04.505Z,98.52
2023-03-26T07:59:57.230Z,98.45
2023-03-26T08:02:58.297Z,99.05
2023-03-26T08:05:52.316Z,98.44
2023-03-26T08:08:46.045Z,98.95
2023-03-26T08:11:51.510Z,98.60
2023-03-26T08:14:42.027Z,98.72
2023-03-26T08:17:13.928Z,98.11
2023-03-26T08:20:09.324Z,98.28
2023-03-26T08:22:41.889Z,98.67
2023-03-26T08:25:33.422Z,98.78
2023-03-26T08:28:35.114Z,99.25
2023-03-26T08:31:03.134Z,98.16
2023-03-26T08:33:30.955Z,97.46
2023-03-26T08:35:58.063Z,97.09
2023-03-26T08:38:24.978Z,97.55
2023-03-26T08:41:09.977Z,96.86
2023-03-26T08:43:46.316Z,98.04
2023-03-26T08:46:53.554Z,97.12
2023-03-26T08:49:46.872Z,96.93
2023-03-26T08:52:29.935Z,96.83
2023-03-26T08:55:26.035Z,95.98
2023-03-26T08:58:21.089Z,96.49
2023-03-26T09:01:09.359Z,95.55
2023-03-26T09:04:13.381Z,96.54
2023-03-26T09:06:43.346Z,96.17
2023-03-26T09:09:19.125Z,96.99
2023-03-26T09:12:10.968Z,96.57
2023-03-26T09:15:12.139Z,97.09
2023-03-26T09:17:51.175Z,96.27
2023-03-26T09:20:43.244Z,96.28
2023-03-26T09:23:39.621Z,96.92
2023-03-26T09:26:12.826Z,95.81
2023-03-26T09:28:40.362Z,96.79
2023-03-26T09:31:35.512Z,96.38
2023-03-26T09:34:24.139Z,96.71
2023-03-26T09:36:57.523Z,97.39
2023-03-26T09:40:10.274Z,97.28
2023-03-26T09:42:53.683Z,96.35
2023-03-26T09:45:51.368Z,96.28
2023-03-26T09:48:19.116Z,96.42
2023-03-26T09:50:49.006Z,96.55
2023-03-26T09:53:50.664Z,96.59
2023-03-26T09:56:20.838Z,97.13
2023-03-26T09:59:18.048Z,96.45
2023-03-26T10:02:14.248Z,96.64
2023-03-26T10:05:11.145Z,96.58
2023-03-26T10:08:16.512Z,97.36
2023-03-26T10:10:54.909Z,98.26
2023-03-26T10:13:40.917Z,97.45
2023-03-26T10:16:33.154Z,98.10
2023-03-26T10:19:07.861Z,97.93
2023-03-26T10:21:55.495Z,97.21
2023-03-26T10:24:38.793Z,97.94
2023-03-26T10:27:14.566Z,98.24
2023-03-26T10:30:24.031Z,97.16
2023-03-26T10:32:56.515Z,97.93
2023-03-26T10:35:41.811Z,97.46
2023-03-26T10:38:50.965Z,97.06
2023-03-26T10:41:50.612Z,97.77
2023-03-26T10:44:31.087Z,97.49
2023-03-26T10:47:06.762Z,98.54
2023-03-26T10:49:57.471Z,98.31
2023-03-26T10:52:37.985Z,97.73
2023-03-26T10:55:19.253Z,98.36
2023-03-26T10:57:56.282Z,98.12
2023-03-26T11:00:27.443Z,98.56
2023-03-26T11:03:13.579Z,98.59
2023-03-26T11:05:49.593Z,98.59
2023-03-26T11:08:16.720Z,99.07
2023-03-26T11:10:56.766Z,98.42
2023-03-26T11:13:43.703Z,99.20
2023-03-26T11:16:33.493Z,99.26
2023-03-26T11:19:31.489Z,99.22
2023-03-26T11:22:07.057Z,98.62
2023-03-26T11:24:52.992Z,99.17
2023-03-26T11:27:26.543Z,98.52
2023-03-26T11:30:18.118Z,98.98
2023-03-26T11:32:53.302Z,99.14
2023-03-26T11:35:39.476Z,99.72
2023-03-26T11:38:42.083Z,99.41
2023-03-26T11:41:25.921Z,99.92
2023-03-26T11:44:38.263Z,100.00
2023-03-26T11:47:10.453Z,100.00
2023-03-26T11:49:42.016Z,100.00
2023-03-26T11:52:12.381Z,100.00
2023-03-26T11:54:39.520Z,100.00
2023-03-26T11:57:14.603Z,100.00
2023-03-26T11:59:57.300Z,100.00
2023-03-26T12:02:36.800Z,100.00
2023-03-26T12:05:18.281Z,100.00
2023-03-26T12:07:46.750Z,100.00
2023-03-26T12:10:37.861Z,100.00
2023-03-26T12:13:33.832Z,100.00
2023-03-26T12:16:22.815Z,100.00
2023-03-26T12:19:06.343Z,100.00
2023-03-26T12:21:48.475Z,100.00
2023-03-26T12:24:30.315Z,100.00
2023-03-26T12:27:03.878Z,100.00
2023-03-26T12:29:34.749Z,100.00
2023-03-26T12:32:08.611Z,100.00
2023-03-26T12:34:39.649Z,100.00
2023-03-26T12:37:28.131Z,100.00
2023-03-26T12:40:26.372Z,100.00
2023-03-26T12:44:54.772Z,100.00
2023-03-26T12:45:44.343Z,100.00
2023-03-26T12:48:20.838Z,100.00
2023-03-26T12:51:06.545Z,100.00
2023-03-26T12:53:57.800Z,100.00
2023-03-26T12:57:12.164Z,100.00
2023-03-26T13:00:02.090Z,100.00
2023-03-26T13:02:33.621Z,100.00
2023-03-26T13:05:13.409Z,100.00
2023-03-26T13:08:07.139Z,100.00
2023-03-26T13:10:55.575Z,100.00
2023-03-26T13:13:34.209Z,100.00
2023-03-26T13:16:13.818Z,100.00
2023-03-26T13:19:12.305Z,100.00
2023-03-26T13:21:46.260Z,100.00
2023-03-26T13:24:25.392Z,100.00
2023-03-26T13:27:01.481Z,100.00
2023-03-26T13:29:37.420Z,100.00
2023-03-26T13:32:23.926Z,100.00
2023-03-26T13:35:06.441Z,100.00
2023-03-26T13:37:49.655Z,100.00
2023-03-26T13:40:42.775Z,100.00
2023-03-26T13:43:34.886Z,100.00
2023-03-26T13:46:14.877Z,100.00
2023-03-26T13:48:53.016Z,100.00
2023-03-26T13:51:35.406Z,100.00
2023-03-26T13:54:11.497Z,100.00
2023-03-26T13:56:48.474Z,100.00
2023-03-26T13:59:31.082Z,100.00
2023-03-26T14:02:06.371Z,100.00
2023-03-26T14:04:43.943Z,100.00
2023-03-26T14:07:18.143Z,100.00
2023-03-26T14:09:53.661Z,100.00
2023-03-26T14:12:49.062Z,100.00
2023-03-26T14:15:30.792Z,100.00
2023-03-26T14:18:20.117Z,100.00
2023-03-26T14:21:08.920Z,100.00
2023-03-26T14:23:42.908Z,100.00
2023-03-26T14:26:31.773Z,100.00
2023-03-26T14:29:10.112Z,100.00
2023-03-26T14:31:40.037Z,100.00
2023-03-26T14:34:51.844Z,100.00
2023-03-26T14:37:30.687Z,100.00
2023-03-26T14:40:25.756Z,100.00
2023-03-26T14:43:17.038Z,100.00
2023-03-26T14:46:07.761Z,100.00
2023-03-26T14:48:58.132Z,100.00
2023-03-26T14:51:56.476Z,100.00
2023-03-26T14:54:28.523Z,100.00
2023-03-26T14:57:27.294Z,100.00
2023-03-26T15:00:20.199Z,100.00
2023-03-26T15:03:15.855Z,100.00
2023-03-26T15:06:34.362Z,100.00
2023-03-26T15:09:20.438Z,100.00
2023-03-26T15:12:24.091Z,100.00
2023-03-26T15:15:18.488Z,100.00
2023-03-26T15:18:10.133Z,100.00
2023-03-26T15:21:04.827Z,100.00
2023-03-26T15:23:34.783Z,100.00
2023-03-26T15:26:20.589Z,100.00
2023-03-26T15:29:03.842Z,100.00
2023-03-26T15:31:58.995Z,100.00
2023-03-26T15:35:02.841Z,100.00
2023-03-26T15:37:48.592Z,100.00
2023-03-26T15:40:29.178Z,100.00
2023-03-26T15:43:16.950Z,100.00
2023-03-26T15:45:54.046Z,100.00
2023-03-26T15:48:32.487Z,100.00
2023-03-26T15:51:06.462Z,100.00
2023-03-26T15:54:09.959Z,100.00
2023-03-26T15:56:43.048Z,100.00
2023-03-26T15:59:38.122Z,100.00
2023-03-26T16:02:10.091Z,100.00
2023-03-26T16:04:50.855Z,100.00
2023-03-26T16:07:41.407Z,100.00
2023-03-26T16:10:41.654Z,100.00
2023-03-26T16:13:20.229Z,100.00
2023-03-26T16:16:18.090Z,100.00
2023-03-26T16:22:10.782Z,100.00
2023-03-26T16:24:55.732Z,100.00
2023-03-26T16:27:30.413Z,100.00
2023-03-26T16:30:00.420Z,100.00
2023-03-26T16:32:54.146Z,100.00
2023-03-26T16:36:05.387Z,100.00
2023-03-26T16:39:14.083Z,100.00
2023-03-26T16:42:19.724Z,100.00
2023-03-26T16:45:00.806Z,100.00
2023-03-26T16:47:59.646Z,100.00
2023-03-26T16:50:44.573Z,100.00
2023-03-26T16:53:24.330Z,100.00
2023-03-26T16:56:05.666Z,100.00
2023-03-26T16:58:49.913Z,100.00
2023-03-26T17:01:21.433Z,100.00
2023-03-26T17:04:04.614Z,100.00
2023-03-26T17:06:59.161Z,100.00
2023-03-26T17:10:05.911Z,100.00
2023-03-26T17:12:39.540Z,100.00
2023-03-26T17:15:34.609Z,100.00
2023-03-26T17:18:10.718Z,100.00
2023-03-26T17:21:09.311Z,100.00
2023-03-26T17:23:59.553Z,100.00
2023-03-26T17:26:49.629Z,100.00
2023-03-26T17:30:05.194Z,100.00
2023-03-26T17:33:09.475Z,100.00
2023-03-26T17:35:37.033Z,100.00
2023-03-26T17:38:09.934Z,100.00
2023-03-26T17:40:59.751Z,100.00
2023-03-26T17:43:48.607Z,100.00
2023-03-26T17:46:37.804Z,100.00
2023-03-26T17:49:20.474Z,100.00
2023-03-26T17:52:01.048Z,100.00
2023-03-26T17:54:41.430Z,100.00
2023-03-26T17:57:26.957Z,100.00
2023-03-26T17:59:58.575Z,100.00
2023-03-26T18:02:54.198Z,100.00
2023-03-26T18:05:25.526Z,100.00
2023-03-26T18:08:36.208Z,100.00
2023-03-26T18:11:27.589Z,100.00
2023-03-26T18:14:15.907Z,100.00
2023-03-26T18:16:48.245Z,100.00
2023-03-26T18:19:20.068Z,100.00
2023-03-26T18:21:52.962Z,100.00
2023-03-26T18:24:25.348Z,100.00
2023-03-26T18:26:58.585Z,100.00
2023-03-26T18:29:36.540Z,100.00
2023-03-26T18:32:19.895Z,100.00
2023-03-26T18:34:50.133Z,100.00
2023-03-26T18:37:23.385Z,100.00
2023-03-26T18:40:11.838Z,100.00
2023-03-26T18:42:41.698Z,100.00
2023-03-26T18:45:24.954Z,100.00
2023-03-26T18:48:24.098Z,100.00
2023-03-26T18:51:05.882Z,100.00
2023-03-26T18:53:45.598Z,100.00
2023-03-26T18:56:31.511Z,100.00
2023-03-26T18:59:02.784Z,100.00
2023-03-26T19:01:32.772Z,100.00
2023-03-26T19:04:08.590Z,100.00
2023-03-26T19:06:41.164Z,100.00
2023-03-26T19:09:30.432Z,100.00
2023-03-26T19:12:06.096Z,100.00
2023-03-26T19:14:37.025Z,100.00
2023-03-26T19:17:07.069Z,100.00
2023-03-26T19:19:37.834Z,100.00
2023-03-26T19:22:11.497Z,100.00
2023-03-26T19:24:40.467Z,100.00
2023-03-26T19:27:07.723Z,100.00
2023-03-26T19:29:36.593Z,100.00
2023-03-26T19:32:25.250Z,98.71
2023-03-26T19:34:52.364Z,98.20
2023-03-26T19:37:30.228Z,98.40
2023-03-26T19:40:14.261Z,97.79
2023-03-26T19:42:44.815Z,96.78
2023-03-26T19:45:18.274Z,97.07
2023-03-26T19:47:50.235Z,97.38
2023-03-26T19:50:27.011Z,97.85
2023-03-26T19:53:17.731Z,97.93
2023-03-26T19:56:10.375Z,98.18
2023-03-26T19:58:37.474Z,98.46
2023-03-26T20:01:05.467Z,98.96
2023-03-26T20:03:43.623Z,99.27
2023-03-26T20:06:13.453Z,98.94
2023-03-26T20:08:43.880Z,99.60
2023-03-26T20:11:21.494Z,98.64
2023-03-26T20:13:52.411Z,99.12
2023-03-26T20:16:28.020Z,99.79
2023-03-26T20:19:02.334Z,99.48
2023-03-26T20:21:30.249Z,99.31
2023-03-26T20:23:57.241Z,99.52
2023-03-26T20:26:24.870Z,98.95
2023-03-26T20:28:53.366Z,98.62
2023-03-26T20:31:25.291Z,99.10
2023-03-26T20:33:54.165Z,99.00
2023-03-26T20:36:33.187Z,99.27
2023-03-26T20:39:08.074Z,99.97
2023-03-26T20:41:38.250Z,100.00
2023-03-26T20:44:15.783Z,100.00
2023-03-26T20:46:43.963Z,99.83
2023-03-26T20:49:11.650Z,99.74
2023-03-26T20:51:39.369Z,99.78
2023-03-26T20:54:06.617Z,99.84
2023-03-26T20:56:37.725Z,99.33
2023-03-26T20:59:11.075Z,99.14
2023-03-26T21:01:38.906Z,99.77
2023-03-26T21:04:07.073Z,99.25
2023-03-26T21:06:34.229Z,99.23
2023-03-26T23:30:30.183Z,97.15
2023-03-26T23:33:00.049Z,97.09
2023-03-26T23:35:27.220Z,97.27
2023-03-26T23:37:54.216Z,97.33
2023-03-26T23:40:21.456Z,96.85
2023-03-26T23:42:49.659Z,97.38
2023-03-26T23:45:17.475Z,97.02
2023-03-26T23:47:44.722Z,97.10
2023-03-26T23:50:11.857Z,97.16
2023-03-26T23:52:38.859Z,97.14
2023-03-26T23:55:06.355Z,96.83
2023-03-26T23:57:33.431Z,96.70
